createdAt,value
2022-12-04T00:01:29.981Z,101156.56
2022-12-04T00:04:01.537Z,101143.28
2022-12-04T00:06:31.084Z,101137.06
2022-12-04T00:08:59.476Z,101142.31
2022-12-04T00:11:31.466Z,101139.53
2022-12-04T00:14:06.417Z,101131.56
2022-12-04T00:16:35.589Z,101142.13
2022-12-04T00:19:04.321Z,101142.97
2022-12-04T00:21:32.675Z,101145.63
2022-12-04T00:24:01.081Z,101133.31
2022-12-04T00:26:32.278Z,101138.59
2022-12-04T00:29:01.545Z,101135.84
2022-12-04T00:31:31.763Z,101148.19
2022-12-04T00:34:02.118Z,101142.91
2022-12-04T00:36:31.493Z,101135.84
2022-12-04T00:39:02.000Z,101140.22
2022-12-04T00:41:32.635Z,101124.34
2022-12-04T00:44:02.309Z,101131.44
2022-12-04T00:46:31.184Z,101143.75
2022-12-04T00:49:02.839Z,101140.28
2022-12-04T00:51:31.609Z,101137.69
2022-12-04T00:53:59.971Z,101146.50
2022-12-04T00:56:30.369Z,101147.47
2022-12-04T00:59:00.758Z,101156.31
2022-12-04T01:01:30.608Z,101166.91
2022-12-04T01:03:59.477Z,101148.47
2022-12-04T01:06:36.883Z,101138.84
2022-12-04T01:09:06.780Z,101135.34
2022-12-04T01:11:35.259Z,101130.97
2022-12-04T01:14:03.857Z,101153.03
2022-12-04T01:16:35.463Z,101139.88
2022-12-04T01:19:04.594Z,101124.03
2022-12-04T01:21:33.013Z,101153.19
2022-12-04T01:24:01.520Z,101152.22
2022-12-04T01:26:30.137Z,101157.53
2022-12-04T01:28:58.524Z,101159.25
2022-12-04T01:31:27.170Z,101155.69
2022-12-04T01:33:55.654Z,101161.91
2022-12-04T01:36:26.364Z,101168.94
2022-12-04T01:38:55.792Z,101181.28
2022-12-04T01:41:27.967Z,101186.50
2022-12-04T01:44:25.569Z,101182.13
2022-12-04T01:46:59.095Z,101188.19
2022-12-04T01:49:42.516Z,101184.66
2022-12-04T01:52:27.018Z,101187.38
2022-12-04T01:55:01.985Z,101195.31
2022-12-04T01:57:33.569Z,101197.03
2022-12-04T02:00:14.686Z,101195.38
2022-12-04T02:02:46.777Z,101192.72
2022-12-04T02:05:18.141Z,101200.66
2022-12-04T02:07:50.274Z,101205.09
2022-12-04T02:10:28.134Z,101195.31
2022-12-04T02:13:12.770Z,101215.53
2022-12-04T02:16:00.277Z,101191.69
2022-12-04T02:18:52.796Z,101181.16
2022-12-04T02:21:32.440Z,101184.66
2022-12-04T02:24:05.264Z,101180.19
2022-12-04T02:26:58.089Z,101191.59
2022-12-04T02:29:38.053Z,101183.56
2022-12-04T02:32:14.664Z,101190.66
2022-12-04T02:35:05.365Z,101195.00
2022-12-04T02:37:50.799Z,101197.59
2022-12-04T02:40:29.344Z,101195.84
2022-12-04T02:43:15.020Z,101194.06
2022-12-04T02:45:48.082Z,101200.25
2022-12-04T02:48:20.616Z,101200.22
2022-12-04T02:50:53.273Z,101201.91
2022-12-04T02:53:35.603Z,101193.97
2022-12-04T02:56:12.275Z,101181.56
2022-12-04T02:58:50.984Z,101193.00
2022-12-04T03:01:25.310Z,101180.63
2022-12-04T03:04:21.035Z,101179.78
2022-12-04T03:07:02.004Z,101185.97
2022-12-04T03:09:40.923Z,101193.88
2022-12-04T03:12:28.604Z,101199.16
2022-12-04T03:15:05.050Z,101201.81
2022-12-04T03:17:44.212Z,101203.59
2022-12-04T03:20:15.649Z,101200.91
2022-12-04T03:22:49.340Z,101211.50
2022-12-04T03:25:17.682Z,101207.13
2022-12-04T03:28:10.355Z,101205.34
2022-12-04T03:30:45.482Z,101210.53
2022-12-04T03:33:36.114Z,101214.88
2022-12-04T03:36:29.407Z,101216.69
2022-12-04T03:39:09.677Z,101229.91
2022-12-04T03:41:50.113Z,101223.75
2022-12-04T03:44:49.875Z,101224.56
2022-12-04T03:47:31.484Z,101228.97
2022-12-04T03:50:49.085Z,101228.09
2022-12-04T03:53:20.290Z,101234.28
2022-12-04T03:56:20.284Z,101243.91
2022-12-04T03:58:52.414Z,101245.75
2022-12-04T04:01:24.955Z,101257.22
2022-12-04T04:03:56.444Z,101245.84
2022-12-04T04:06:34.038Z,101249.44
2022-12-04T04:09:12.912Z,101241.56
2022-12-04T04:12:07.004Z,101247.69
2022-12-04T04:15:06.805Z,101255.56
2022-12-04T04:18:09.079Z,101257.22
2022-12-04T04:20:58.305Z,101257.16
2022-12-04T04:23:48.844Z,101253.59
2022-12-04T04:26:17.634Z,101250.09
2022-12-04T04:28:46.589Z,101243.88
2022-12-04T04:31:21.885Z,101241.31
2022-12-04T04:34:10.373Z,101253.69
2022-12-04T04:36:41.406Z,101256.25
2022-12-04T04:39:38.154Z,101258.81
2022-12-04T04:42:34.805Z,101252.63
2022-12-04T04:45:17.234Z,101248.25
2022-12-04T04:47:48.760Z,101257.94
2022-12-04T04:50:18.492Z,101257.88
2022-12-04T04:52:53.159Z,101241.13
2022-12-04T04:55:21.395Z,101252.59
2022-12-04T04:57:49.834Z,101251.69
2022-12-04T05:00:22.311Z,101249.06
2022-12-04T05:02:51.210Z,101249.06
2022-12-04T05:05:19.744Z,101249.06
2022-12-04T05:07:48.104Z,101257.94
2022-12-04T05:10:16.469Z,101261.53
2022-12-04T05:12:44.760Z,101260.69
2022-12-04T05:15:13.220Z,101268.59
2022-12-04T05:17:41.558Z,101270.31
2022-12-04T05:20:11.163Z,101267.63
2022-12-04T05:22:39.616Z,101276.47
2022-12-04T05:25:08.342Z,101273.78
2022-12-04T05:27:36.759Z,101283.50
2022-12-04T05:30:05.998Z,101296.69
2022-12-04T05:32:34.424Z,101291.31
2022-12-04T05:35:07.659Z,101282.56
2022-12-04T05:37:40.601Z,101284.34
2022-12-04T05:40:10.049Z,101292.28
2022-12-04T05:42:38.359Z,101279.91
2022-12-04T05:45:07.479Z,101279.91
2022-12-04T05:47:40.613Z,101289.63
2022-12-04T05:50:10.829Z,101289.59
2022-12-04T05:52:39.603Z,101289.59
2022-12-04T05:55:08.337Z,101280.72
2022-12-04T05:57:36.706Z,101298.38
2022-12-04T06:00:06.366Z,101308.94
2022-12-04T06:02:35.702Z,101309.84
2022-12-04T06:05:04.280Z,101315.19
2022-12-04T06:07:32.775Z,101318.69
2022-12-04T06:10:01.085Z,101324.03
2022-12-04T06:12:30.811Z,101333.69
2022-12-04T06:14:59.169Z,101331.03
2022-12-04T06:17:27.437Z,101327.47
2022-12-04T06:19:57.326Z,101328.38
2022-12-04T06:22:25.877Z,101324.88
2022-12-04T06:24:54.469Z,101318.69
2022-12-04T06:27:27.713Z,101327.50
2022-12-04T06:29:56.943Z,101335.41
2022-12-04T06:32:25.640Z,101332.72
2022-12-04T06:34:55.083Z,101338.03
2022-12-04T06:37:26.002Z,101329.25
2022-12-04T06:39:54.759Z,101332.75
2022-12-04T06:42:23.304Z,101323.13
2022-12-04T06:44:51.663Z,101318.78
2022-12-04T06:47:22.531Z,101314.34
2022-12-04T06:49:52.350Z,101325.81
2022-12-04T06:52:20.761Z,101325.00
2022-12-04T06:54:49.054Z,101327.72
2022-12-04T06:57:17.412Z,101321.63
2022-12-04T06:59:45.694Z,101326.09
2022-12-04T07:02:14.134Z,101323.56
2022-12-04T07:04:42.439Z,101321.88
2022-12-04T07:07:11.210Z,101330.78
2022-12-04T07:09:39.644Z,101318.53
2022-12-04T07:12:08.124Z,101321.28
2022-12-04T07:14:36.489Z,101332.78
2022-12-04T07:17:04.807Z,101340.69
2022-12-04T07:19:33.240Z,101352.13
2022-12-04T07:22:01.560Z,101354.78
2022-12-04T07:24:32.382Z,101361.91
2022-12-04T07:27:00.699Z,101363.69
2022-12-04T07:29:29.045Z,101366.28
2022-12-04T07:31:57.767Z,101363.59
2022-12-04T07:34:26.362Z,101353.03
2022-12-04T07:36:54.790Z,101352.19
2022-12-04T07:39:23.151Z,101351.28
2022-12-04T07:41:51.484Z,101354.81
2022-12-04T07:44:19.801Z,101363.56
2022-12-04T07:46:48.166Z,101367.00
2022-12-04T07:49:16.590Z,101353.75
2022-12-04T07:51:44.925Z,101360.88
2022-12-04T07:54:13.246Z,101362.56
2022-12-04T07:56:41.565Z,101358.19
2022-12-04T07:59:09.942Z,101360.75
2022-12-04T08:01:38.338Z,101364.25
2022-12-04T08:04:06.997Z,101358.91
2022-12-04T08:06:36.198Z,101361.56
2022-12-04T08:09:10.304Z,101361.53
2022-12-04T08:11:38.981Z,101356.28
2022-12-04T08:14:09.790Z,101371.25
2022-12-04T08:16:38.508Z,101369.44
2022-12-04T08:19:06.999Z,101372.91
2022-12-04T08:21:35.800Z,101365.88
2022-12-04T08:24:04.479Z,101363.22
2022-12-04T08:26:34.679Z,101364.19
2022-12-04T08:29:03.942Z,101353.56
2022-12-04T08:31:35.918Z,101362.41
2022-12-04T08:34:07.113Z,101358.84
2022-12-04T08:36:36.227Z,101363.19
2022-12-04T08:39:05.095Z,101357.94
2022-12-04T08:41:33.514Z,101357.09
2022-12-04T08:44:01.973Z,101359.75
2022-12-04T08:46:30.630Z,101369.44
2022-12-04T08:48:59.488Z,101361.47
2022-12-04T08:51:31.214Z,101367.66
2022-12-04T08:54:09.081Z,101365.00
2022-12-04T08:56:38.678Z,101364.16
2022-12-04T08:59:07.375Z,101365.03
2022-12-04T09:01:35.849Z,101363.34
2022-12-04T09:04:04.181Z,101372.25
2022-12-04T09:06:32.600Z,101374.06
2022-12-04T09:09:01.163Z,101377.66
2022-12-04T09:11:31.322Z,101379.44
2022-12-04T09:13:59.961Z,101378.66
2022-12-04T09:16:28.489Z,101374.19
2022-12-04T09:18:57.568Z,101375.09
2022-12-04T09:21:26.979Z,101365.50
2022-12-04T09:23:55.377Z,101365.50
2022-12-04T09:26:27.924Z,101363.81
2022-12-04T09:28:57.563Z,101365.63
2022-12-04T09:31:26.584Z,101361.22
2022-12-04T09:33:55.577Z,101371.03
2022-12-04T09:36:23.995Z,101362.31
2022-12-04T09:38:54.531Z,101373.88
2022-12-04T09:41:37.720Z,101383.63
2022-12-04T09:44:21.729Z,101381.06
2022-12-04T09:46:59.372Z,101401.34
2022-12-04T09:49:47.788Z,101400.63
2022-12-04T09:52:42.994Z,101403.31
2022-12-04T09:55:36.284Z,101406.00
2022-12-04T09:58:11.150Z,101409.47
2022-12-04T10:00:43.744Z,101409.50
2022-12-04T10:03:21.549Z,101408.59
2022-12-04T10:06:12.974Z,101410.31
2022-12-04T10:08:44.065Z,101410.31
2022-12-04T10:11:41.549Z,101409.44
2022-12-04T10:14:46.905Z,101421.72
2022-12-04T10:17:32.949Z,101424.31
2022-12-04T10:20:41.218Z,101427.91
2022-12-04T10:23:38.944Z,101426.13
2022-12-04T10:26:16.699Z,101422.56
2022-12-04T10:29:00.595Z,101422.50
2022-12-04T10:31:31.297Z,101426.91
2022-12-04T10:34:23.946Z,101424.31
2022-12-04T10:36:54.992Z,101426.91
2022-12-04T10:39:27.882Z,101426.00
2022-12-04T10:42:06.508Z,101429.53
2022-12-04T10:44:34.985Z,101430.41
2022-12-04T10:47:04.847Z,101432.13
2022-12-04T10:49:38.504Z,101427.72
2022-12-04T10:52:07.785Z,101423.28
2022-12-04T10:54:41.704Z,101420.63
2022-12-04T10:57:12.584Z,101420.59
2022-12-04T10:59:53.589Z,101425.88
2022-12-04T11:02:24.168Z,101439.06
2022-12-04T11:04:57.065Z,101433.81
2022-12-04T11:07:30.380Z,101450.53
2022-12-04T11:10:30.665Z,101442.63
2022-12-04T11:13:05.074Z,101446.13
2022-12-04T11:15:37.219Z,101446.13
2022-12-04T11:18:11.444Z,101451.44
2022-12-04T11:20:44.014Z,101453.16
2022-12-04T11:23:17.664Z,101445.19
2022-12-04T11:25:52.554Z,101451.31
2022-12-04T11:28:41.119Z,101453.94
2022-12-04T11:31:12.295Z,101456.63
2022-12-04T11:33:47.940Z,101460.19
2022-12-04T11:36:27.584Z,101459.28
2022-12-04T11:39:30.572Z,101459.28
2022-12-04T11:42:08.099Z,101452.19
2022-12-04T11:44:38.004Z,101449.53
2022-12-04T11:47:08.169Z,101440.75
2022-12-04T11:49:40.858Z,101444.28
2022-12-04T11:52:33.624Z,101451.31
2022-12-04T11:55:25.288Z,101449.50
2022-12-04T11:58:18.103Z,101461.81
2022-12-04T12:01:00.751Z,101456.47
2022-12-04T12:03:45.103Z,101447.66
2022-12-04T12:06:36.544Z,101454.75
2022-12-04T12:09:34.025Z,101450.31
2022-12-04T12:12:30.048Z,101452.13
2022-12-04T12:15:20.904Z,101451.25
2022-12-04T12:18:22.474Z,101439.00
2022-12-04T12:20:50.922Z,101439.78
2022-12-04T12:23:39.144Z,101456.59
2022-12-04T12:26:13.704Z,101439.88
2022-12-04T12:29:03.265Z,101435.38
2022-12-04T12:31:53.439Z,101431.84
2022-12-04T12:34:33.928Z,101419.47
2022-12-04T12:37:26.186Z,101433.56
2022-12-04T12:40:16.376Z,101456.47
2022-12-04T12:42:58.888Z,101461.81
2022-12-04T12:45:48.312Z,101446.88
2022-12-04T12:48:28.585Z,101444.22
2022-12-04T12:51:29.772Z,101447.78
2022-12-04T12:54:23.628Z,101454.00
2022-12-04T12:56:57.859Z,101449.66
2022-12-04T12:59:28.724Z,101455.91
2022-12-04T13:02:15.707Z,101451.53
2022-12-04T13:04:49.485Z,101452.44
2022-12-04T13:07:25.708Z,101463.03
2022-12-04T13:10:35.085Z,101464.00
2022-12-04T13:13:31.424Z,101479.03
2022-12-04T13:16:18.747Z,101486.13
2022-12-04T13:19:01.704Z,101502.84
2022-12-04T13:21:38.668Z,101494.94
2022-12-04T13:24:42.889Z,101511.66
2022-12-04T13:27:34.303Z,101512.50
2022-12-04T13:30:05.384Z,101513.41
2022-12-04T13:32:54.503Z,101515.22
2022-12-04T13:35:43.694Z,101518.72
2022-12-04T13:38:41.378Z,101522.22
2022-12-04T13:41:16.892Z,101527.53
2022-12-04T13:43:45.204Z,101523.09
2022-12-04T13:46:41.864Z,101528.44
2022-12-04T13:49:19.304Z,101533.75
2022-12-04T13:51:51.784Z,101526.75
2022-12-04T13:54:22.661Z,101527.66
2022-12-04T13:56:54.664Z,101539.16
2022-12-04T13:59:35.659Z,101538.28
2022-12-04T14:02:26.768Z,101539.22
2022-12-04T14:05:10.801Z,101541.88
2022-12-04T14:07:41.586Z,101541.03
2022-12-04T14:10:15.943Z,101538.38
2022-12-04T14:13:01.705Z,101543.72
2022-12-04T14:15:37.850Z,101543.75
2022-12-04T14:18:14.985Z,101548.13
2022-12-04T14:20:48.326Z,101550.78
2022-12-04T14:23:23.472Z,101558.72
2022-12-04T14:25:52.270Z,101557.81
2022-12-04T14:28:26.838Z,101558.69
2022-12-04T14:31:10.573Z,101566.63
2022-12-04T14:33:46.429Z,101570.19
2022-12-04T14:36:38.794Z,101567.59
2022-12-04T14:39:10.030Z,101573.84
2022-12-04T14:41:39.763Z,101579.13
2022-12-04T14:44:08.429Z,101576.53
2022-12-04T14:46:45.959Z,101587.97
2022-12-04T14:49:29.383Z,101588.94
2022-12-04T14:52:32.904Z,101591.53
2022-12-04T14:55:13.867Z,101601.25
2022-12-04T14:57:53.379Z,101602.16
2022-12-04T15:00:24.387Z,101604.84
2022-12-04T15:03:01.853Z,101604.03
2022-12-04T15:05:32.423Z,101617.28
2022-12-04T15:08:03.581Z,101625.25
2022-12-04T15:10:53.224Z,101624.41
2022-12-04T15:13:30.658Z,101632.38
2022-12-04T15:15:59.983Z,101633.28
2022-12-04T15:18:28.403Z,101647.41
2022-12-04T15:21:00.975Z,101641.25
2022-12-04T15:23:35.553Z,101645.66
2022-12-04T15:26:09.057Z,101643.94
2022-12-04T15:28:50.369Z,101652.75
2022-12-04T15:31:29.325Z,101652.72
2022-12-04T15:34:04.419Z,101649.22
2022-12-04T15:36:48.109Z,101650.06
2022-12-04T15:39:28.661Z,101657.09
2022-12-04T15:42:23.152Z,101657.94
2022-12-04T15:45:02.705Z,101668.50
2022-12-04T15:47:34.114Z,101667.56
2022-12-04T15:50:30.990Z,101663.13
2022-12-04T15:53:18.034Z,101671.94
2022-12-04T15:55:53.231Z,101677.25
2022-12-04T15:58:36.609Z,101668.38
2022-12-04T16:01:14.218Z,101672.72
2022-12-04T16:03:45.425Z,101678.00
2022-12-04T16:06:21.223Z,101682.34
2022-12-04T16:08:53.358Z,101684.03
2022-12-04T16:11:21.706Z,101690.16
2022-12-04T16:14:02.743Z,101697.19
2022-12-04T16:16:33.929Z,101704.19
2022-12-04T16:19:09.264Z,101700.63
2022-12-04T16:21:37.709Z,101704.16
2022-12-04T16:24:07.884Z,101709.44
2022-12-04T16:26:36.203Z,101704.09
2022-12-04T16:29:04.859Z,101710.25
2022-12-04T16:31:33.318Z,101714.59
2022-12-04T16:34:01.869Z,101721.63
2022-12-04T16:36:30.205Z,101734.81
2022-12-04T16:38:58.615Z,101737.41
2022-12-04T16:41:26.964Z,101741.78
2022-12-04T16:43:58.471Z,101739.97
2022-12-04T16:46:28.753Z,101751.41
2022-12-04T16:48:58.752Z,101747.84
2022-12-04T16:51:29.868Z,101753.97
2022-12-04T16:53:58.201Z,101754.78
2022-12-04T16:56:26.567Z,101766.22
2022-12-04T16:58:54.884Z,101747.63
2022-12-04T17:01:26.272Z,101752.00
2022-12-04T17:03:54.716Z,101755.50
2022-12-04T17:06:23.470Z,101753.66
2022-12-04T17:08:51.810Z,101760.69
2022-12-04T17:11:20.104Z,101760.59
2022-12-04T17:13:48.424Z,101772.91
2022-12-04T17:16:19.788Z,101767.59
2022-12-04T17:18:49.011Z,101761.38
2022-12-04T17:21:17.385Z,101769.28
2022-12-04T17:23:45.863Z,101778.91
2022-12-04T17:26:16.263Z,101784.16
2022-12-04T17:28:44.900Z,101778.78
2022-12-04T17:31:26.867Z,101784.91
2022-12-04T17:33:57.334Z,101790.13
2022-12-04T17:36:28.432Z,101789.19
2022-12-04T17:38:58.878Z,101788.25
2022-12-04T17:41:27.224Z,101790.84
2022-12-04T17:43:55.628Z,101798.72
2022-12-04T17:46:25.364Z,101801.34
2022-12-04T17:48:53.830Z,101791.56
2022-12-04T17:51:25.553Z,101787.97
2022-12-04T17:53:54.162Z,101795.84
2022-12-04T17:56:24.519Z,101790.50
2022-12-04T17:58:53.089Z,101785.16
2022-12-04T18:01:24.396Z,101793.97
2022-12-04T18:03:58.105Z,101800.06
2022-12-04T18:06:29.186Z,101800.94
2022-12-04T18:08:58.038Z,101805.31
2022-12-04T18:11:30.034Z,101802.56
2022-12-04T18:14:11.744Z,101803.38
2022-12-04T18:16:44.151Z,101794.47
2022-12-04T18:19:13.780Z,101810.28
2022-12-04T18:21:42.464Z,101805.81
2022-12-04T18:24:11.284Z,101806.63
2022-12-04T18:26:46.185Z,101811.03
2022-12-04T18:29:18.974Z,101815.34
2022-12-04T18:31:47.705Z,101810.84
2022-12-04T18:34:16.864Z,101817.88
2022-12-04T18:36:48.775Z,101817.88
2022-12-04T18:39:20.724Z,101813.41
2022-12-04T18:41:49.674Z,101815.13
2022-12-04T18:44:18.719Z,101821.22
2022-12-04T18:46:47.318Z,101819.41
2022-12-04T18:49:16.140Z,101819.38
2022-12-04T18:51:50.044Z,101812.97
2022-12-04T18:54:21.886Z,101818.16
2022-12-04T18:56:51.641Z,101816.28
2022-12-04T18:59:25.745Z,101818.91
2022-12-04T19:01:55.218Z,101818.84
2022-12-04T19:04:25.511Z,101809.94
2022-12-04T19:06:57.204Z,101808.09
2022-12-04T19:12:18.511Z,101806.91
2022-12-04T19:14:46.875Z,101790.81
2022-12-04T19:17:16.110Z,101798.56
2022-12-04T19:19:44.543Z,101795.56
2022-12-04T19:22:12.904Z,101796.19
2022-12-04T19:24:41.963Z,101794.19
2022-12-04T19:27:13.847Z,101787.75
2022-12-04T19:29:44.084Z,101788.66
2022-12-04T19:32:13.097Z,101791.28
2022-12-04T19:34:41.662Z,101780.69
2022-12-04T19:37:10.163Z,101777.28
2022-12-04T19:39:38.682Z,101772.00
2022-12-04T19:42:07.279Z,101777.25
2022-12-04T19:44:51.465Z,101783.34
2022-12-04T19:47:20.334Z,101784.03
2022-12-04T19:49:48.912Z,101779.38
2022-12-04T19:52:17.763Z,101770.47
2022-12-04T19:54:46.506Z,101762.22
2022-12-04T19:57:15.778Z,101755.59
2022-12-04T19:59:46.529Z,101760.69
2022-12-04T20:02:15.906Z,101756.94
2022-12-04T20:04:44.726Z,101758.31
2022-12-04T20:07:13.275Z,101761.69
2022-12-04T20:09:42.506Z,101756.19
2022-12-04T20:12:12.259Z,101758.72
2022-12-04T20:14:40.705Z,101757.81
2022-12-04T20:17:09.699Z,101756.78
2022-12-04T20:19:38.230Z,101754.94
2022-12-04T20:22:06.714Z,101757.66
2022-12-04T20:24:35.150Z,101757.66
2022-12-04T20:27:04.219Z,101756.06
2022-12-04T20:29:32.594Z,101754.56
2022-12-04T20:32:01.038Z,101753.81
2022-12-04T20:34:30.509Z,101744.13
2022-12-04T20:36:59.949Z,101744.19
2022-12-04T20:39:29.185Z,101744.19
2022-12-04T20:41:57.542Z,101741.69
2022-12-04T20:44:25.853Z,101742.81
2022-12-04T20:46:54.479Z,101741.13
2022-12-04T20:49:22.839Z,101738.47
2022-12-04T20:51:52.846Z,101739.28
2022-12-04T20:54:24.107Z,101741.94
2022-12-04T20:56:54.348Z,101746.28
2022-12-04T20:59:24.745Z,101734.66
2022-12-04T21:01:54.060Z,101739.78
2022-12-04T21:04:22.956Z,101737.06
2022-12-04T21:06:51.319Z,101740.53
2022-12-04T21:09:24.056Z,101736.19
2022-12-04T21:11:55.585Z,101737.06
2022-12-04T21:15:10.722Z,101737.06
2022-12-04T21:17:39.032Z,101745.13
2022-12-04T21:20:08.991Z,101733.66
2022-12-04T21:22:37.688Z,101735.56
2022-12-04T21:25:06.349Z,101735.69
2022-12-04T21:27:34.804Z,101735.63
2022-12-04T21:30:03.258Z,101738.22
2022-12-04T21:32:31.629Z,101728.25
2022-12-04T21:35:00.006Z,101729.03
2022-12-04T21:37:28.459Z,101734.19
2022-12-04T21:39:57.042Z,101729.59
2022-12-04T21:42:34.989Z,101725.75
2022-12-04T21:45:07.242Z,101724.53
2022-12-04T21:47:38.191Z,101726.41
2022-12-04T21:50:07.312Z,101715.38
2022-12-04T21:52:35.635Z,101711.69
2022-12-04T21:55:04.074Z,101716.88
2022-12-04T21:57:32.365Z,101717.88
2022-12-04T22:00:00.865Z,101712.63
2022-12-04T22:02:29.450Z,101706.28
2022-12-04T22:04:57.815Z,101696.41
2022-12-04T22:07:26.185Z,101698.09
2022-12-04T22:09:54.777Z,101700.56
2022-12-04T22:15:11.970Z,101688.63
2022-12-04T22:17:40.265Z,101694.88
2022-12-04T22:20:09.566Z,101701.22
2022-12-04T22:22:37.929Z,101705.81
2022-12-04T22:25:06.724Z,101706.81
2022-12-04T22:27:35.109Z,101708.53
2022-12-04T22:30:04.281Z,101702.22
2022-12-04T22:32:32.904Z,101701.34
2022-12-04T22:35:01.229Z,101693.34
2022-12-04T22:37:29.560Z,101698.75
2022-12-04T22:39:58.195Z,101698.81
2022-12-04T22:42:26.845Z,101697.22
2022-12-04T22:44:55.182Z,101694.66
2022-12-04T22:47:23.484Z,101690.25
2022-12-04T22:49:51.768Z,101689.28
2022-12-04T22:52:20.121Z,101687.44
2022-12-04T22:54:48.364Z,101678.50
2022-12-04T22:57:17.519Z,101680.38
2022-12-04T22:59:47.144Z,101688.56
2022-12-04T23:02:15.469Z,101685.19
2022-12-04T23:04:44.948Z,101693.44
2022-12-04T23:07:13.274Z,101690.09
2022-12-04T23:09:41.824Z,101693.03
2022-12-04T23:12:10.237Z,101688.81
2022-12-04T23:14:38.626Z,101694.28
2022-12-04T23:17:07.034Z,101711.28
2022-12-04T23:19:35.489Z,101711.41
2022-12-04T23:22:03.822Z,101712.41
2022-12-04T23:24:32.220Z,101713.34
2022-12-04T23:27:00.539Z,101706.25
2022-12-04T23:29:52.103Z,101710.75
2022-12-04T23:32:17.386Z,101702.84
2022-12-04T23:34:46.007Z,101698.59
2022-12-04T23:37:14.345Z,101696.03
2022-12-04T23:39:42.639Z,101700.44
2022-12-04T23:42:10.893Z,101699.50
2022-12-04T23:44:39.144Z,101684.47
2022-12-04T23:47:07.602Z,101687.16
2022-12-04T23:49:35.944Z,101681.88
2022-12-04T23:52:04.281Z,101675.69
2022-12-04T23:54:35.837Z,101678.47
2022-12-04T23:57:04.199Z,101698.06
2022-12-04T23:59:32.584Z,101692.75
